< < Back
Terminal Aerodrome Forecast


Current Version              Previous Versions:   1  2  3  4  5  6  7  8  9  

Terminal Aerodrome Forecast

662
FTUS42 KTAE 041120
TAFABY
TAF
KABY 041120Z 0412/0512 33004KT P6SM SCT060 SCT080
     FM041400 31012G18KT P6SM SKC
     FM050000 28005KT P6SM SKC=

Latest METAR

455
SAUS70 KWBC 042100 RRJ
MTRABY
METAR KABY 042053Z 31010G20KT 10SM CLR 24/07 A2974 RMK AO2 SLP067
T02440067 56020


USA.gov is the U.S. government's official web portal to all federal, state and local government web resources and services.